createdAt,value
2018-12-29T00:00:36.558Z,1021.73
2018-12-29T00:01:36.547Z,1021.65
2018-12-29T00:02:36.543Z,1021.70
2018-12-29T00:03:36.524Z,1021.70
2018-12-29T00:04:36.522Z,1021.73
2018-12-29T00:05:36.544Z,1021.76
2018-12-29T00:06:36.495Z,1021.73
2018-12-29T00:07:36.501Z,1021.74
2018-12-29T00:08:36.479Z,1021.74
2018-12-29T00:09:36.467Z,1021.72
2018-12-29T00:10:36.459Z,1021.75
2018-12-29T00:11:36.452Z,1021.76
2018-12-29T00:12:36.470Z,1021.76
2018-12-29T00:13:36.416Z,1021.75
2018-12-29T00:14:36.407Z,1021.82
2018-12-29T00:15:36.399Z,1021.83
2018-12-29T00:16:36.395Z,1021.81
2018-12-29T00:17:36.424Z,1021.82
2018-12-29T00:18:36.368Z,1021.86
2018-12-29T00:19:36.363Z,1021.78
2018-12-29T00:20:36.345Z,1021.78
2018-12-29T00:21:36.332Z,1021.75
2018-12-29T00:22:36.351Z,1021.72
2018-12-29T00:23:36.321Z,1021.79
2018-12-29T00:24:36.298Z,1021.79
2018-12-29T00:25:36.291Z,1021.79
2018-12-29T00:26:36.280Z,1021.77
2018-12-29T00:27:36.288Z,1021.80
2018-12-29T00:28:36.270Z,1021.77
2018-12-29T00:29:36.255Z,1021.76
2018-12-29T00:30:36.239Z,1021.77
2018-12-29T00:31:36.229Z,1021.73
2018-12-29T00:32:36.246Z,1021.79
2018-12-29T00:33:36.200Z,1021.80
2018-12-29T00:34:36.192Z,1021.80
2018-12-29T00:35:36.179Z,1021.77
2018-12-29T00:36:36.177Z,1021.70
2018-12-29T00:37:36.177Z,1021.76
2018-12-29T00:38:36.168Z,1021.75
2018-12-29T00:39:36.138Z,1021.74
2018-12-29T00:40:36.136Z,1021.78
2018-12-29T00:41:36.121Z,1021.76
2018-12-29T00:42:36.113Z,1021.72
2018-12-29T00:43:36.126Z,1021.72
2018-12-29T00:44:36.093Z,1021.78
2018-12-29T00:45:36.078Z,1021.74
2018-12-29T00:46:36.062Z,1021.72
2018-12-29T00:47:36.058Z,1021.76
2018-12-29T00:48:36.078Z,1021.79
2018-12-29T00:49:36.042Z,1021.83
2018-12-29T00:50:36.024Z,1021.78
2018-12-29T00:51:36.012Z,1021.81
2018-12-29T00:52:35.999Z,1021.84
2018-12-29T00:53:35.984Z,1021.85
2018-12-29T00:54:36.018Z,1021.86
2018-12-29T00:55:35.976Z,1021.87
2018-12-29T00:56:35.954Z,1021.84
2018-12-29T00:57:35.942Z,1021.92
2018-12-29T00:58:35.952Z,1021.81
2018-12-29T00:59:35.947Z,1021.87
2018-12-29T01:00:35.925Z,1021.85
2018-12-29T01:01:35.909Z,1021.89
2018-12-29T01:02:35.912Z,1021.90
2018-12-29T01:03:35.882Z,1021.91
2018-12-29T01:04:35.891Z,1021.91
2018-12-29T01:05:35.854Z,1021.92
2018-12-29T01:06:35.844Z,1021.92
2018-12-29T01:07:35.838Z,1021.91
2018-12-29T01:08:35.858Z,1021.90
2018-12-29T01:09:35.818Z,1021.91
2018-12-29T01:10:35.805Z,1021.91
2018-12-29T01:11:35.791Z,1021.93
2018-12-29T01:12:35.810Z,1021.92
2018-12-29T01:13:35.779Z,1021.95
2018-12-29T01:14:35.794Z,1021.94
2018-12-29T01:15:35.760Z,1021.98
2018-12-29T01:16:35.744Z,1021.97
2018-12-29T01:17:35.733Z,1021.97
2018-12-29T01:18:35.720Z,1022.01
2018-12-29T01:19:35.703Z,1022.02
2018-12-29T01:20:35.723Z,1021.96
2018-12-29T01:21:35.687Z,1021.94
2018-12-29T01:22:35.683Z,1021.96
2018-12-29T01:23:35.668Z,1021.95
2018-12-29T01:24:35.649Z,1021.93
2018-12-29T01:25:35.677Z,1022.01
2018-12-29T01:26:35.634Z,1021.86
2018-12-29T01:27:35.624Z,1021.94
2018-12-29T01:28:35.608Z,1021.96
2018-12-29T01:29:35.622Z,1021.93
2018-12-29T01:30:35.585Z,1021.96
2018-12-29T01:31:35.596Z,1021.95
2018-12-29T01:32:35.571Z,1021.91
2018-12-29T01:33:35.560Z,1021.98
2018-12-29T01:34:35.590Z,1021.93
2018-12-29T01:35:35.538Z,1021.95
2018-12-29T01:36:35.519Z,1021.95
2018-12-29T01:37:35.518Z,1022.04
2018-12-29T01:38:35.496Z,1022.03
2018-12-29T01:39:35.490Z,1022.01
2018-12-29T01:40:35.504Z,1021.97
2018-12-29T01:41:35.471Z,1021.95
2018-12-29T01:42:35.463Z,1021.99
2018-12-29T01:43:35.446Z,1021.89
2018-12-29T01:44:35.470Z,1021.93
2018-12-29T01:45:35.443Z,1021.89
2018-12-29T01:46:35.418Z,1021.87
2018-12-29T01:47:35.407Z,1021.84
2018-12-29T01:48:35.393Z,1021.76
2018-12-29T01:49:35.380Z,1021.77
2018-12-29T01:50:35.394Z,1021.80
2018-12-29T01:51:35.379Z,1021.78
2018-12-29T01:52:35.374Z,1021.79
2018-12-29T01:53:35.346Z,1021.79
2018-12-29T01:54:35.332Z,1021.74
2018-12-29T01:55:35.341Z,1021.77
2018-12-29T01:56:35.304Z,1021.73
2018-12-29T01:57:35.294Z,1021.74
2018-12-29T01:58:35.289Z,1021.77
2018-12-29T01:59:35.276Z,1021.75
2018-12-29T02:00:35.282Z,1021.71
2018-12-29T02:01:35.271Z,1021.75
2018-12-29T02:02:35.242Z,1021.79
2018-12-29T02:03:35.229Z,1021.81
2018-12-29T02:04:35.225Z,1021.82
2018-12-29T02:05:35.212Z,1021.76
2018-12-29T02:06:35.232Z,1021.80
2018-12-29T02:07:35.191Z,1021.79
2018-12-29T02:08:35.179Z,1021.79
2018-12-29T02:09:35.179Z,1021.79
2018-12-29T02:10:35.150Z,1021.76
2018-12-29T02:11:35.144Z,1021.75
2018-12-29T02:12:35.173Z,1021.68
2018-12-29T02:13:35.125Z,1021.73
2018-12-29T02:14:35.110Z,1021.72
2018-12-29T02:15:35.103Z,1021.76
2018-12-29T02:16:35.093Z,1021.74
2018-12-29T02:17:35.082Z,1021.74
2018-12-29T02:18:35.091Z,1021.67
2018-12-29T02:19:35.080Z,1021.74
2018-12-29T02:20:35.041Z,1021.73
2018-12-29T02:21:35.033Z,1021.71
2018-12-29T02:22:35.044Z,1021.70
2018-12-29T02:23:35.010Z,1021.70
2018-12-29T02:24:35.005Z,1021.74
2018-12-29T02:25:34.999Z,1021.74
2018-12-29T02:26:34.984Z,1021.72
2018-12-29T02:27:35.000Z,1021.76
2018-12-29T02:28:34.980Z,1021.72
2018-12-29T02:29:34.952Z,1021.70
2018-12-29T02:30:34.941Z,1021.68
2018-12-29T02:31:34.934Z,1021.70
2018-12-29T02:32:34.915Z,1021.71
2018-12-29T02:33:34.943Z,1021.68
2018-12-29T02:34:34.892Z,1021.69
2018-12-29T02:35:34.879Z,1021.71
2018-12-29T02:36:34.878Z,1021.66
2018-12-29T02:37:34.872Z,1021.72
2018-12-29T02:38:34.865Z,1021.69
2018-12-29T02:39:34.865Z,1021.65
2018-12-29T02:40:34.826Z,1021.65
2018-12-29T02:41:34.819Z,1021.66
2018-12-29T02:42:34.804Z,1021.61
2018-12-29T02:43:34.793Z,1021.65
2018-12-29T02:44:34.807Z,1021.62
2018-12-29T02:45:34.784Z,1021.62
2018-12-29T02:46:34.767Z,1021.61
2018-12-29T02:47:34.766Z,1021.62
2018-12-29T02:48:34.750Z,1021.58
2018-12-29T02:49:34.758Z,1021.58
2018-12-29T02:50:34.722Z,1021.63
2018-12-29T02:51:34.727Z,1021.65
2018-12-29T02:52:34.695Z,1021.61
2018-12-29T02:53:34.684Z,1021.59
2018-12-29T02:54:34.705Z,1021.60
2018-12-29T02:55:34.663Z,1021.55
2018-12-29T02:56:34.657Z,1021.55
2018-12-29T02:57:34.648Z,1021.58
2018-12-29T02:58:34.638Z,1021.52
2018-12-29T02:59:34.657Z,1021.52
2018-12-29T03:00:34.608Z,1021.51
2018-12-29T03:01:34.616Z,1021.47
2018-12-29T03:02:34.595Z,1021.47
2018-12-29T03:03:34.580Z,1021.47
2018-12-29T03:04:34.587Z,1021.52
2018-12-29T03:05:34.555Z,1021.52
2018-12-29T03:06:34.547Z,1021.56
2018-12-29T03:07:34.532Z,1021.51
2018-12-29T03:08:34.552Z,1021.53
2018-12-29T03:09:34.542Z,1021.49
2018-12-29T03:10:34.507Z,1021.46
2018-12-29T03:11:34.497Z,1021.46
2018-12-29T03:12:34.479Z,1021.51
2018-12-29T03:13:34.467Z,1021.50
2018-12-29T03:14:34.480Z,1021.46
2018-12-29T03:15:41.250Z,1021.52
2018-12-29T03:16:35.443Z,1021.50
2018-12-29T03:17:34.430Z,1021.51
2018-12-29T03:18:34.413Z,1021.46
2018-12-29T03:19:34.435Z,1021.48
2018-12-29T03:20:34.418Z,1021.52
2018-12-29T03:21:34.388Z,1021.47
2018-12-29T03:22:34.371Z,1021.50
2018-12-29T03:23:34.358Z,1021.49
2018-12-29T03:24:34.374Z,1021.46
2018-12-29T03:25:34.371Z,1021.50
2018-12-29T03:26:34.338Z,1021.50
2018-12-29T03:27:34.328Z,1021.44
2018-12-29T03:28:34.308Z,1021.42
2018-12-29T03:29:34.293Z,1021.44
2018-12-29T03:30:34.308Z,1021.43
2018-12-29T03:31:34.274Z,1021.42
2018-12-29T03:32:34.272Z,1021.44
2018-12-29T03:33:34.259Z,1021.36
2018-12-29T03:34:34.242Z,1021.41
2018-12-29T03:35:34.266Z,1021.43
2018-12-29T03:36:34.227Z,1021.40
2018-12-29T03:37:34.213Z,1021.41
2018-12-29T03:38:34.202Z,1021.42
2018-12-29T03:39:34.202Z,1021.38
2018-12-29T03:40:34.214Z,1021.41
2018-12-29T03:41:34.167Z,1021.34
2018-12-29T03:42:34.160Z,1021.35
2018-12-29T03:43:34.143Z,1021.36
2018-12-29T03:44:34.139Z,1021.37
2018-12-29T03:45:34.130Z,1021.36
2018-12-29T03:46:34.142Z,1021.36
2018-12-29T03:47:34.110Z,1021.38
2018-12-29T03:48:34.086Z,1021.35
2018-12-29T03:49:34.078Z,1021.42
2018-12-29T03:50:34.079Z,1021.33
2018-12-29T03:51:34.082Z,1021.34
2018-12-29T03:52:34.043Z,1021.35
2018-12-29T03:53:34.034Z,1021.33
2018-12-29T03:54:34.024Z,1021.35
2018-12-29T03:55:34.014Z,1021.34
2018-12-29T03:56:34.036Z,1021.31
2018-12-29T03:57:34.005Z,1021.40
2018-12-29T03:58:33.986Z,1021.32
2018-12-29T03:59:33.983Z,1021.35
2018-12-29T04:00:33.966Z,1021.31
2018-12-29T04:01:33.968Z,1021.29
2018-12-29T04:02:33.947Z,1021.29
2018-12-29T04:03:33.924Z,1021.34
2018-12-29T04:04:33.935Z,1021.32
2018-12-29T04:05:33.912Z,1021.35
2018-12-29T04:06:33.921Z,1021.29
2018-12-29T04:07:33.894Z,1021.33
2018-12-29T04:08:33.887Z,1021.31
2018-12-29T04:09:33.869Z,1021.25
2018-12-29T04:10:33.855Z,1021.30
2018-12-29T04:11:33.877Z,1021.29
2018-12-29T04:12:33.827Z,1021.27
2018-12-29T04:13:33.817Z,1021.27
2018-12-29T04:14:33.812Z,1021.28
2018-12-29T04:15:33.797Z,1021.30
2018-12-29T04:16:33.794Z,1021.26
2018-12-29T04:17:33.814Z,1021.28
2018-12-29T04:18:33.772Z,1021.30
2018-12-29T04:19:33.771Z,1021.27
2018-12-29T04:20:33.743Z,1021.28
2018-12-29T04:21:33.728Z,1021.30
2018-12-29T04:22:33.757Z,1021.26
2018-12-29T04:23:33.719Z,1021.29
2018-12-29T04:24:33.709Z,1021.33
2018-12-29T04:25:33.692Z,1021.31
2018-12-29T04:26:33.676Z,1021.40
2018-12-29T04:27:33.687Z,1021.36
2018-12-29T04:28:33.685Z,1021.41
2018-12-29T04:29:33.650Z,1021.37
2018-12-29T04:30:33.638Z,1021.38
2018-12-29T04:31:33.627Z,1021.41
2018-12-29T04:32:33.608Z,1021.38
2018-12-29T04:33:33.627Z,1021.38
2018-12-29T04:34:33.589Z,1021.35
2018-12-29T04:35:33.578Z,1021.40
2018-12-29T04:36:33.575Z,1021.40
2018-12-29T04:37:33.573Z,1021.41
2018-12-29T04:38:33.570Z,1021.42
2018-12-29T04:39:33.535Z,1021.40
2018-12-29T04:40:33.537Z,1021.42
2018-12-29T04:41:33.519Z,1021.40
2018-12-29T04:42:33.516Z,1021.47
2018-12-29T04:43:33.530Z,1021.43
2018-12-29T04:44:33.484Z,1021.42
2018-12-29T04:45:33.467Z,1021.44
2018-12-29T04:46:33.459Z,1021.34
2018-12-29T04:47:33.456Z,1021.32
2018-12-29T04:48:33.443Z,1021.29
2018-12-29T04:49:33.479Z,1021.28
2018-12-29T04:50:33.421Z,1021.36
2018-12-29T04:51:33.410Z,1021.35
2018-12-29T04:52:33.394Z,1021.37
2018-12-29T04:53:33.382Z,1021.37
2018-12-29T04:54:33.401Z,1021.34
2018-12-29T04:55:33.373Z,1021.38
2018-12-29T04:56:33.351Z,1021.32
2018-12-29T04:57:33.339Z,1021.41
2018-12-29T04:58:33.332Z,1021.37
2018-12-29T04:59:33.353Z,1021.31
2018-12-29T05:00:33.314Z,1021.35
2018-12-29T05:01:33.306Z,1021.31
2018-12-29T05:02:33.293Z,1021.42
2018-12-29T05:03:33.284Z,1021.39
2018-12-29T05:04:33.268Z,1021.37
2018-12-29T05:05:33.274Z,1021.38
2018-12-29T05:06:33.242Z,1021.42
2018-12-29T05:07:33.242Z,1021.41
2018-12-29T05:08:33.225Z,1021.42
2018-12-29T05:09:33.235Z,1021.38
2018-12-29T05:10:33.199Z,1021.40
2018-12-29T05:11:33.185Z,1021.45
2018-12-29T05:12:33.184Z,1021.47
2018-12-29T05:13:33.174Z,1021.45
2018-12-29T05:14:33.194Z,1021.43
2018-12-29T05:15:33.150Z,1021.40
2018-12-29T05:16:33.133Z,1021.45
2018-12-29T05:17:33.125Z,1021.43
2018-12-29T05:18:33.113Z,1021.45
2018-12-29T05:19:33.104Z,1021.43
2018-12-29T05:20:33.120Z,1021.41
2018-12-29T05:21:33.086Z,1021.43
2018-12-29T05:22:33.075Z,1021.44
2018-12-29T05:23:33.065Z,1021.41
2018-12-29T05:24:33.051Z,1021.51
2018-12-29T05:25:33.058Z,1021.40
2018-12-29T05:26:33.054Z,1021.38
2018-12-29T05:27:33.021Z,1021.47
2018-12-29T05:28:33.003Z,1021.48
2018-12-29T05:29:32.993Z,1021.41
2018-12-29T05:30:32.984Z,1021.36
2018-12-29T05:31:33.001Z,1021.40
2018-12-29T05:32:32.975Z,1021.48
2018-12-29T05:33:32.955Z,1021.46
2018-12-29T05:34:32.946Z,1021.46
2018-12-29T05:35:32.933Z,1021.53
2018-12-29T05:36:32.921Z,1021.51
2018-12-29T05:37:32.929Z,1021.49
2018-12-29T05:38:32.902Z,1021.50
2018-12-29T05:39:32.885Z,1021.47
2018-12-29T05:40:32.881Z,1021.52
2018-12-29T05:41:32.868Z,1021.54
2018-12-29T05:42:32.873Z,1021.51
2018-12-29T05:43:32.840Z,1021.53
2018-12-29T05:44:32.838Z,1021.52
2018-12-29T05:45:32.832Z,1021.52
2018-12-29T05:46:32.822Z,1021.54
2018-12-29T05:47:32.828Z,1021.51
2018-12-29T05:48:32.791Z,1021.57
2018-12-29T05:49:32.777Z,1021.53
2018-12-29T05:50:32.776Z,1021.59
2018-12-29T05:51:32.753Z,1021.57
2018-12-29T05:52:32.772Z,1021.52
2018-12-29T05:53:32.773Z,1021.51
2018-12-29T05:54:32.732Z,1021.50
2018-12-29T05:55:32.721Z,1021.50
2018-12-29T05:56:32.710Z,1021.51
2018-12-29T05:57:32.696Z,1021.48
2018-12-29T05:58:32.687Z,1021.48
2018-12-29T05:59:32.709Z,1021.58
2018-12-29T06:00:32.659Z,1021.55
2018-12-29T06:01:32.651Z,1021.50
2018-12-29T06:02:32.639Z,1021.50
2018-12-29T06:03:32.653Z,1021.50
2018-12-29T06:04:32.643Z,1021.54
2018-12-29T06:05:32.611Z,1021.58
2018-12-29T06:06:32.650Z,1021.55
2018-12-29T06:07:32.588Z,1021.66
2018-12-29T06:08:32.571Z,1021.63
2018-12-29T06:09:32.586Z,1021.66
2018-12-29T06:10:32.551Z,1021.67
2018-12-29T06:11:32.540Z,1021.68
2018-12-29T06:12:32.535Z,1021.68
2018-12-29T06:13:32.523Z,1021.71
2018-12-29T06:14:32.539Z,1021.78
2018-12-29T06:15:32.504Z,1021.71
2018-12-29T06:16:32.491Z,1021.73
2018-12-29T06:17:32.480Z,1021.74
2018-12-29T06:18:32.476Z,1021.74
2018-12-29T06:19:32.458Z,1021.69
2018-12-29T06:20:32.467Z,1021.74
2018-12-29T06:21:32.430Z,1021.75
2018-12-29T06:22:32.420Z,1021.69
2018-12-29T06:23:32.409Z,1021.71
2018-12-29T06:24:32.410Z,1021.74
2018-12-29T06:25:32.416Z,1021.69
2018-12-29T06:26:32.386Z,1021.66
2018-12-29T06:27:32.373Z,1021.74
2018-12-29T06:28:32.355Z,1021.65
2018-12-29T06:29:32.344Z,1021.76
2018-12-29T06:30:32.367Z,1021.73
2018-12-29T06:31:32.350Z,1021.76
2018-12-29T06:32:32.312Z,1021.84
2018-12-29T06:33:32.300Z,1021.88
2018-12-29T06:34:32.367Z,1021.90
2018-12-29T06:35:32.279Z,1021.87
2018-12-29T06:36:32.298Z,1021.87
2018-12-29T06:37:32.264Z,1021.88
2018-12-29T06:38:32.265Z,1021.90
2018-12-29T06:39:32.244Z,1021.94
2018-12-29T06:40:32.226Z,1021.95
2018-12-29T06:41:32.248Z,1021.98
2018-12-29T06:42:32.205Z,1021.96
2018-12-29T06:43:32.215Z,1022.00
2018-12-29T06:44:32.200Z,1021.92
2018-12-29T06:45:32.179Z,1021.91
2018-12-29T06:46:35.093Z,1021.85
2018-12-29T06:47:32.149Z,1021.77
2018-12-29T06:48:32.148Z,1021.78
2018-12-29T06:49:32.139Z,1021.84
2018-12-29T06:50:32.128Z,1021.86
2018-12-29T06:51:32.116Z,1021.80
2018-12-29T06:52:32.130Z,1021.84
2018-12-29T06:53:32.085Z,1021.84
2018-12-29T06:54:32.076Z,1021.84
2018-12-29T06:55:32.064Z,1021.92
2018-12-29T06:56:32.066Z,1021.94
2018-12-29T06:57:32.046Z,1021.91
2018-12-29T06:58:32.058Z,1021.95
2018-12-29T06:59:32.026Z,1021.98
2018-12-29T07:00:32.012Z,1021.98
2018-12-29T07:01:32.000Z,1021.91
2018-12-29T07:02:31.995Z,1021.92
2018-12-29T07:03:32.007Z,1021.88
2018-12-29T07:04:31.965Z,1021.88
2018-12-29T07:05:31.958Z,1021.88
2018-12-29T07:06:31.954Z,1021.83
2018-12-29T07:07:31.952Z,1021.82
2018-12-29T07:08:31.968Z,1021.82
2018-12-29T07:09:31.919Z,1021.79
2018-12-29T07:10:31.908Z,1021.78
2018-12-29T07:11:31.897Z,1021.77
2018-12-29T07:12:31.880Z,1021.77
2018-12-29T07:13:31.868Z,1021.75
2018-12-29T07:14:31.894Z,1021.74
2018-12-29T07:15:31.851Z,1021.77
2018-12-29T07:16:31.850Z,1021.67
2018-12-29T07:17:31.846Z,1021.68
2018-12-29T07:18:31.834Z,1021.57
2018-12-29T07:19:31.808Z,1021.65
2018-12-29T07:20:31.823Z,1021.58
2018-12-29T07:21:31.789Z,1021.62
2018-12-29T07:22:31.777Z,1021.67
2018-12-29T07:23:31.766Z,1021.64
2018-12-29T07:24:31.784Z,1021.66
2018-12-29T07:25:31.748Z,1021.70
2018-12-29T07:26:31.735Z,1021.67
2018-12-29T07:27:31.718Z,1021.72
2018-12-29T07:28:31.726Z,1021.70
2018-12-29T07:29:38.085Z,1021.72
2018-12-29T07:30:32.712Z,1021.74
2018-12-29T07:31:31.680Z,1021.78
2018-12-29T07:32:31.668Z,1021.76
2018-12-29T07:33:31.654Z,1021.74
2018-12-29T07:34:31.648Z,1021.78
2018-12-29T07:35:31.661Z,1021.73
2018-12-29T07:36:31.621Z,1021.77
2018-12-29T07:37:31.611Z,1021.75
2018-12-29T07:38:31.602Z,1021.79
2018-12-29T07:39:31.589Z,1021.77
2018-12-29T07:40:31.606Z,1021.80
2018-12-29T07:41:31.574Z,1021.80
2018-12-29T07:42:31.561Z,1021.87
2018-12-29T07:43:31.552Z,1021.86
2018-12-29T07:44:31.541Z,1021.83
2018-12-29T07:45:31.560Z,1021.81
2018-12-29T07:46:31.513Z,1021.83
2018-12-29T07:47:31.503Z,1021.78
2018-12-29T07:48:31.500Z,1021.78
2018-12-29T07:49:31.490Z,1021.81
2018-12-29T07:50:31.514Z,1021.77
2018-12-29T07:51:31.459Z,1021.80
2018-12-29T07:52:31.455Z,1021.77
2018-12-29T07:53:31.444Z,1021.77
2018-12-29T07:54:31.433Z,1021.77
2018-12-29T07:55:31.459Z,1021.77
2018-12-29T07:56:31.406Z,1021.77
2018-12-29T07:57:31.394Z,1021.75
2018-12-29T07:58:31.383Z,1021.77
2018-12-29T07:59:31.374Z,1021.80
2018-12-29T08:00:31.368Z,1021.76
2018-12-29T08:01:31.379Z,1021.74
2018-12-29T08:02:31.346Z,1021.77
2018-12-29T08:03:31.334Z,1021.75
2018-12-29T08:04:31.328Z,1021.75
2018-12-29T08:05:32.437Z,1021.69
2018-12-29T08:06:31.341Z,1021.75
2018-12-29T08:07:31.293Z,1021.72
2018-12-29T08:08:31.276Z,1021.66
2018-12-29T08:09:31.264Z,1021.67
2018-12-29T08:10:31.255Z,1021.67
2018-12-29T08:11:31.245Z,1021.68
2018-12-29T08:12:31.270Z,1021.71
2018-12-29T08:13:31.233Z,1021.73
2018-12-29T08:14:31.219Z,1021.69
2018-12-29T08:15:31.207Z,1021.68
2018-12-29T08:16:31.195Z,1021.70
2018-12-29T08:17:31.185Z,1021.71
2018-12-29T08:18:31.188Z,1021.67
2018-12-29T08:19:31.158Z,1021.67
2018-12-29T08:20:31.152Z,1021.69
2018-12-29T08:21:31.145Z,1021.69
2018-12-29T08:22:31.123Z,1021.66
2018-12-29T08:23:31.171Z,1021.67
2018-12-29T08:24:31.114Z,1021.67
2018-12-29T08:25:31.103Z,1021.66
2018-12-29T08:26:31.092Z,1021.73
2018-12-29T08:27:31.101Z,1021.71
2018-12-29T08:28:31.071Z,1021.75
2018-12-29T08:29:31.073Z,1021.77
2018-12-29T08:30:31.037Z,1021.83
2018-12-29T08:31:31.039Z,1021.84
2018-12-29T08:32:31.030Z,1021.82
2018-12-29T08:33:31.011Z,1021.79
2018-12-29T08:34:31.035Z,1021.85
2018-12-29T08:35:30.991Z,1021.85
2018-12-29T08:36:30.972Z,1021.84
2018-12-29T08:37:30.962Z,1021.82
2018-12-29T08:38:30.959Z,1021.87
2018-12-29T08:39:30.945Z,1021.87
2018-12-29T08:40:30.956Z,1021.90
2018-12-29T08:41:30.925Z,1021.88
2018-12-29T08:42:30.936Z,1021.88
2018-12-29T08:43:30.899Z,1021.89
2018-12-29T08:44:30.894Z,1021.88
2018-12-29T08:45:30.904Z,1021.88
2018-12-29T08:46:30.873Z,1021.85
2018-12-29T08:47:30.884Z,1021.84
2018-12-29T08:48:30.844Z,1021.88
2018-12-29T08:49:30.868Z,1021.82
2018-12-29T08:50:30.825Z,1021.88
2018-12-29T08:51:30.814Z,1021.83
2018-12-29T08:52:30.806Z,1021.83
2018-12-29T08:53:30.793Z,1021.86
2018-12-29T08:54:30.782Z,1021.86
2018-12-29T08:55:30.789Z,1021.81
2018-12-29T08:56:30.763Z,1021.77
2018-12-29T08:57:30.758Z,1021.77
2018-12-29T08:58:30.743Z,1021.78
2018-12-29T08:59:30.733Z,1021.80
2018-12-29T09:00:30.747Z,1021.80
2018-12-29T09:01:30.720Z,1021.81
2018-12-29T09:02:30.691Z,1021.82
2018-12-29T09:03:30.688Z,1021.87
2018-12-29T09:04:30.684Z,1021.82
2018-12-29T09:05:30.668Z,1021.77
2018-12-29T09:06:30.679Z,1021.81
2018-12-29T09:07:30.656Z,1021.78
2018-12-29T09:08:30.629Z,1021.77
2018-12-29T09:09:30.638Z,1021.77
2018-12-29T09:10:30.637Z,1021.78
2018-12-29T09:11:30.602Z,1021.81
2018-12-29T09:12:30.588Z,1021.80
2018-12-29T09:13:30.578Z,1021.83
2018-12-29T09:14:30.568Z,1021.78
2018-12-29T09:15:30.581Z,1021.80
2018-12-29T09:16:30.548Z,1021.83
2018-12-29T09:17:30.538Z,1021.80
2018-12-29T09:18:30.527Z,1021.83
2018-12-29T09:19:30.513Z,1021.86
2018-12-29T09:20:30.525Z,1021.85
2018-12-29T09:21:30.491Z,1021.85
2018-12-29T09:22:30.482Z,1021.80
2018-12-29T09:23:30.466Z,1021.82
2018-12-29T09:24:30.469Z,1021.83
2018-12-29T09:25:30.471Z,1021.84
2018-12-29T09:26:30.459Z,1021.81
2018-12-29T09:27:30.431Z,1021.81
2018-12-29T09:28:30.421Z,1021.81
2018-12-29T09:29:30.408Z,1021.85
2018-12-29T09:30:30.400Z,1021.84
2018-12-29T09:31:30.409Z,1021.80
2018-12-29T09:32:30.372Z,1021.77
2018-12-29T09:33:30.364Z,1021.78
2018-12-29T09:34:30.358Z,1021.79
2018-12-29T09:35:30.337Z,1021.84
2018-12-29T09:36:30.353Z,1021.76
2018-12-29T09:37:30.323Z,1021.80
2018-12-29T09:38:30.311Z,1021.80
2018-12-29T09:39:30.304Z,1021.82
2018-12-29T09:40:30.291Z,1021.81
2018-12-29T09:41:30.307Z,1021.83
2018-12-29T09:42:30.275Z,1021.83
2018-12-29T09:43:30.260Z,1021.78
2018-12-29T09:44:30.240Z,1021.80
2018-12-29T09:45:30.230Z,1021.81
2018-12-29T09:46:30.242Z,1021.83
2018-12-29T09:47:30.209Z,1021.82
2018-12-29T09:48:30.206Z,1021.86
2018-12-29T09:49:30.198Z,1021.85
2018-12-29T09:50:30.181Z,1021.79
2018-12-29T09:51:30.197Z,1021.82
2018-12-29T09:52:30.175Z,1021.81
2018-12-29T09:53:30.147Z,1021.84
2018-12-29T09:54:30.151Z,1021.78
2018-12-29T09:55:30.123Z,1021.75
2018-12-29T09:56:30.124Z,1021.80
2018-12-29T09:57:30.143Z,1021.70
2018-12-29T09:58:30.093Z,1021.63
2018-12-29T09:59:30.078Z,1021.60
2018-12-29T10:00:30.075Z,1021.55
2018-12-29T10:01:30.064Z,1021.49
2018-12-29T10:02:30.057Z,1021.49
2018-12-29T10:03:30.062Z,1021.46
2018-12-29T10:04:30.029Z,1021.45
2018-12-29T10:05:30.015Z,1021.48
2018-12-29T10:06:30.005Z,1021.48
2018-12-29T10:07:29.997Z,1021.60
2018-12-29T10:08:29.989Z,1021.59
2018-12-29T10:09:29.999Z,1021.53
2018-12-29T10:10:29.967Z,1021.47
2018-12-29T10:11:29.955Z,1021.49
2018-12-29T10:12:29.939Z,1021.42
2018-12-29T10:13:29.949Z,1021.47
2018-12-29T10:14:29.955Z,1021.43
2018-12-29T10:15:29.912Z,1021.41
2018-12-29T10:16:29.901Z,1021.39
2018-12-29T10:17:29.886Z,1021.35
2018-12-29T10:18:29.877Z,1021.36
2018-12-29T10:19:29.872Z,1021.40
2018-12-29T10:20:29.889Z,1021.39
2018-12-29T10:21:29.850Z,1021.32
2018-12-29T10:22:29.840Z,1021.28
2018-12-29T10:23:29.850Z,1021.23
2018-12-29T10:24:29.810Z,1021.14
2018-12-29T10:25:29.822Z,1021.17
2018-12-29T10:26:29.787Z,1021.17
2018-12-29T10:27:29.777Z,1021.12
2018-12-29T10:28:29.810Z,1021.09
2018-12-29T10:29:29.766Z,1021.10
2018-12-29T10:30:29.743Z,1021.06
2018-12-29T10:31:29.737Z,1021.04
2018-12-29T10:32:29.769Z,1021.06
2018-12-29T10:33:29.718Z,1021.11
2018-12-29T10:34:29.713Z,1021.06
2018-12-29T10:35:29.698Z,1021.05
2018-12-29T10:36:29.684Z,1021.02
2018-12-29T10:37:29.670Z,1020.97
2018-12-29T10:38:29.684Z,1021.00
2018-12-29T10:39:29.652Z,1021.03
2018-12-29T10:40:29.645Z,1021.04
2018-12-29T10:41:29.634Z,1021.07
2018-12-29T10:42:29.622Z,1021.03
2018-12-29T10:43:29.642Z,1021.05
2018-12-29T10:44:29.595Z,1021.01
2018-12-29T10:45:29.583Z,1020.98
2018-12-29T10:46:29.588Z,1021.05
2018-12-29T10:47:34.535Z,1020.97
2018-12-29T10:48:30.574Z,1020.98
2018-12-29T10:49:29.540Z,1020.99
2018-12-29T10:50:29.560Z,1020.94
2018-12-29T10:51:29.518Z,1020.93
2018-12-29T10:52:29.512Z,1020.94
2018-12-29T10:53:29.502Z,1020.91
2018-12-29T10:54:29.495Z,1020.87
2018-12-29T10:55:29.484Z,1020.91
2018-12-29T10:56:29.484Z,1020.94
2018-12-29T10:57:29.452Z,1020.86
2018-12-29T10:58:29.441Z,1020.93
2018-12-29T10:59:29.433Z,1020.95
2018-12-29T11:00:34.915Z,1020.89
2018-12-29T11:01:30.437Z,1020.87
2018-12-29T11:02:29.398Z,1020.85
2018-12-29T11:03:29.387Z,1020.91
2018-12-29T11:04:29.384Z,1020.88
2018-12-29T11:05:29.377Z,1020.91
2018-12-29T11:06:29.388Z,1020.89
2018-12-29T11:07:29.352Z,1020.87
2018-12-29T11:08:29.332Z,1020.86
2018-12-29T11:09:29.325Z,1020.83
2018-12-29T11:10:29.313Z,1020.84
2018-12-29T11:11:29.324Z,1020.86
2018-12-29T11:12:29.300Z,1020.82
2018-12-29T11:13:29.308Z,1020.77
2018-12-29T11:14:29.273Z,1020.76
2018-12-29T11:15:29.273Z,1020.79
2018-12-29T11:16:29.269Z,1020.82
2018-12-29T11:17:29.238Z,1020.78
2018-12-29T11:18:29.232Z,1020.76
2018-12-29T11:19:29.222Z,1020.76
2018-12-29T11:20:29.206Z,1020.77
2018-12-29T11:21:29.230Z,1020.75
2018-12-29T11:22:29.180Z,1020.71
2018-12-29T11:23:29.171Z,1020.69
2018-12-29T11:24:29.169Z,1020.66
2018-12-29T11:25:29.158Z,1020.64
2018-12-29T11:26:29.150Z,1020.66
2018-12-29T11:27:29.160Z,1020.60
2018-12-29T11:28:29.120Z,1020.60
2018-12-29T11:29:29.108Z,1020.60
2018-12-29T11:30:29.096Z,1020.50
2018-12-29T11:31:29.086Z,1020.59
2018-12-29T11:32:29.104Z,1020.59
2018-12-29T11:33:29.078Z,1020.53
2018-12-29T11:34:29.055Z,1020.50
2018-12-29T11:35:29.225Z,1020.42
2018-12-29T11:36:29.065Z,1020.38
2018-12-29T11:37:29.059Z,1020.38
2018-12-29T11:38:29.020Z,1020.33
2018-12-29T11:39:29.015Z,1020.24
2018-12-29T11:40:28.994Z,1020.21
2018-12-29T11:41:37.695Z,1020.27
2018-12-29T11:42:28.975Z,1020.18
2018-12-29T11:43:28.984Z,1020.15
2018-12-29T11:44:28.956Z,1020.18
2018-12-29T11:45:28.941Z,1020.16
2018-12-29T11:46:28.926Z,1020.20
2018-12-29T11:47:28.913Z,1020.20
2018-12-29T11:48:28.944Z,1020.23
2018-12-29T11:49:28.899Z,1020.22
2018-12-29T11:50:28.881Z,1020.20
2018-12-29T11:51:28.878Z,1020.09
2018-12-29T11:52:28.860Z,1020.17
2018-12-29T11:53:28.849Z,1020.12
2018-12-29T11:54:28.866Z,1020.09
2018-12-29T11:55:28.832Z,1020.12
2018-12-29T11:56:28.824Z,1020.07
2018-12-29T11:57:28.831Z,1020.13
2018-12-29T11:58:28.819Z,1020.09
2018-12-29T11:59:28.807Z,1020.06
2018-12-29T12:00:28.773Z,1020.04
2018-12-29T12:01:28.762Z,1020.04
2018-12-29T12:02:28.771Z,1019.99
2018-12-29T12:03:28.800Z,1019.97
2018-12-29T12:04:28.755Z,1019.97
2018-12-29T12:05:28.718Z,1019.96